Time,TemperatureF,DewpointF,PressureIn,WindDirection,WindDirectionDegrees,WindSpeedMPH,WindSpeedGustMPH,Humidity,HourlyPrecipIn,Conditions,Clouds,dailyrainin,SoftwareType,DateUTC
2013-10-11 00:12:00,40.0,34.0,30.03,South,180,0.0,2.0,78,0.00,,,0.01,,2013-10-11 06:12:00,
2013-10-11 00:22:00,40.0,34.0,30.03,South,180,0.0,2.0,78,0.00,,,0.01,,2013-10-11 06:22:00,
2013-10-11 00:42:00,40.0,34.0,30.03,North,0,1.0,2.0,78,0.00,,,0.01,,2013-10-11 06:42:00,
2013-10-11 00:52:00,39.0,33.0,30.03,NE,45,0.0,1.0,78,0.00,,,0.01,,2013-10-11 06:52:00,
2013-10-11 01:11:00,39.0,33.0,30.03,SE,135,0.0,2.0,79,0.00,,,0.01,,2013-10-11 07:11:00,
2013-10-11 01:21:00,38.0,32.0,30.04,East,90,0.0,2.0,79,0.00,,,0.01,,2013-10-11 07:21:00,
2013-10-11 01:42:00,38.0,32.0,30.04,SE,135,0.0,2.0,80,0.00,,,0.01,,2013-10-11 07:42:00,
2013-10-11 01:52:00,37.0,31.0,30.05,South,180,0.0,2.0,79,0.00,,,0.01,,2013-10-11 07:52:00,
2013-10-11 02:11:00,36.0,31.0,30.06,South,180,0.0,2.0,81,0.00,,,0.01,,2013-10-11 08:11:00,
2013-10-11 02:21:00,35.0,30.0,30.06,South,180,0.0,2.0,82,0.00,,,0.01,,2013-10-11 08:21:00,
2013-10-11 02:42:00,35.0,30.0,30.06,SE,135,1.0,2.0,82,0.00,,,0.01,,2013-10-11 08:42:00,
2013-10-11 02:52:00,34.0,29.0,30.07,South,180,0.0,2.0,83,0.00,,,0.01,,2013-10-11 08:52:00,
2013-10-11 03:12:00,33.0,29.0,30.07,South,180,3.0,4.0,84,0.00,,,0.01,,2013-10-11 09:12:00,
2013-10-11 03:22:00,33.0,29.0,30.07,South,180,0.0,2.0,84,0.00,,,0.01,,2013-10-11 09:22:00,
2013-10-11 03:42:00,32.0,28.0,30.08,South,180,2.0,3.0,86,0.00,,,0.01,,2013-10-11 09:42:00,
2013-10-11 03:54:00,32.0,28.0,30.08,South,180,0.0,3.0,86,0.00,,,0.01,,2013-10-11 09:54:00,
2013-10-11 04:12:00,31.0,28.0,30.08,South,180,0.0,2.0,87,0.00,,,0.01,,2013-10-11 10:12:00,
2013-10-11 04:23:00,31.0,28.0,30.09,South,180,0.0,2.0,87,0.00,,,0.01,,2013-10-11 10:23:00,
2013-10-11 04:42:00,30.0,27.0,30.09,South,180,1.0,2.0,88,0.00,,,0.01,,2013-10-11 10:42:00,
2013-10-11 04:53:00,30.0,27.0,30.09,SE,135,0.0,2.0,88,0.00,,,0.01,,2013-10-11 10:53:00,
2013-10-11 05:12:00,29.0,26.0,30.09,SE,135,1.0,2.0,88,0.00,,,0.01,,2013-10-11 11:12:00,
2013-10-11 05:22:00,29.0,26.0,30.10,SE,135,3.0,4.0,90,0.00,,,0.01,,2013-10-11 11:22:00,
2013-10-11 05:52:00,30.0,28.0,30.11,South,180,0.0,2.0,91,0.00,,,0.01,,2013-10-11 11:52:00,
2013-10-11 06:11:00,30.0,28.0,30.11,South,180,2.0,3.0,91,0.00,,,0.01,,2013-10-11 12:11:00,
2013-10-11 06:22:00,30.0,28.0,30.11,SE,135,0.0,2.0,91,0.00,,,0.01,,2013-10-11 12:22:00,
2013-10-11 06:42:00,29.0,27.0,30.12,SE,135,1.0,3.0,91,0.00,,,0.01,,2013-10-11 12:42:00,
2013-10-11 06:52:00,29.0,27.0,30.13,SE,135,2.0,2.0,91,0.00,,,0.01,,2013-10-11 12:52:00,
2013-10-11 07:11:00,29.0,27.0,30.14,SE,135,1.0,2.0,91,0.00,,,0.01,,2013-10-11 13:11:00,
2013-10-11 07:21:00,29.0,27.0,30.14,South,180,1.0,2.0,91,0.00,,,0.01,,2013-10-11 13:21:00,
2013-10-11 07:42:00,29.0,27.0,30.15,South,180,0.0,2.0,92,0.00,,,0.01,,2013-10-11 13:42:00,
2013-10-11 07:53:00,28.0,26.0,30.15,North,0,0.0,2.0,92,0.00,,,0.01,,2013-10-11 13:53:00,
2013-10-11 08:11:00,28.0,26.0,30.15,South,180,0.0,2.0,92,0.00,,,0.01,,2013-10-11 14:11:00,
2013-10-11 08:22:00,28.0,26.0,30.15,SE,135,0.0,2.0,92,0.00,,,0.01,,2013-10-11 14:22:00,
2013-10-11 08:42:00,28.0,26.0,30.16,South,180,0.0,3.0,92,0.00,,,0.01,,2013-10-11 14:42:00,
2013-10-11 08:52:00,28.0,26.0,30.16,SE,135,2.0,2.0,93,0.00,,,0.01,,2013-10-11 14:52:00,
2013-10-11 09:11:00,28.0,26.0,30.17,SE,135,1.0,2.0,93,0.00,,,0.01,,2013-10-11 15:11:00,
2013-10-11 09:22:00,29.0,27.0,30.17,South,180,1.0,2.0,93,0.00,,,0.01,,2013-10-11 15:22:00,
2013-10-11 09:43:00,29.0,27.0,30.17,SE,135,2.0,4.0,94,0.00,,,0.01,,2013-10-11 15:43:00,
2013-10-11 09:54:00,30.0,28.0,30.16,SE,135,1.0,3.0,94,0.00,,,0.01,,2013-10-11 15:54:00,
2013-10-11 10:13:00,32.0,31.0,30.17,South,180,0.0,2.0,95,0.00,,,0.00,,2013-10-11 16:13:00,
2013-10-11 10:22:00,33.0,32.0,30.17,SE,135,1.0,2.0,95,0.00,,,0.00,,2013-10-11 16:22:00,
2013-10-11 10:43:00,35.0,34.0,30.16,SE,135,0.0,0.0,96,0.00,,,0.00,,2013-10-11 16:43:00,
2013-10-11 10:53:00,38.0,37.0,30.16,NE,45,1.0,2.0,95,0.01,,,0.01,,2013-10-11 16:53:00,
2013-10-11 11:12:00,40.0,38.0,30.17,NW,315,0.0,2.0,91,0.01,,,0.01,,2013-10-11 17:12:00,
2013-10-11 11:22:00,41.0,37.0,30.17,South,180,0.0,2.0,86,0.01,,,0.01,,2013-10-11 17:22:00,
2013-10-11 11:43:00,43.0,38.0,30.17,West,270,1.0,2.0,81,0.01,,,0.01,,2013-10-11 17:43:00,
2013-10-11 11:53:00,46.0,38.0,30.16,North,0,1.0,3.0,73,0.00,,,0.01,,2013-10-11 17:53:00,
2013-10-11 12:12:00,48.0,36.0,30.16,North,0,0.0,2.0,62,0.00,,,0.01,,2013-10-11 18:12:00,
2013-10-11 12:21:00,47.0,34.0,30.16,East,90,2.0,2.0,60,0.00,,,0.01,,2013-10-11 18:21:00,
2013-10-11 12:42:00,47.0,32.0,30.16,NW,315,1.0,2.0,56,0.00,,,0.01,,2013-10-11 18:42:00,
2013-10-11 12:52:00,47.0,31.0,30.16,North,0,3.0,7.0,54,0.00,,,0.01,,2013-10-11 18:52:00,
2013-10-11 13:11:00,46.0,31.0,30.16,NW,315,3.0,4.0,55,0.00,,,0.01,,2013-10-11 19:11:00,
2013-10-11 13:21:00,46.0,30.0,30.16,North,0,2.0,5.0,54,0.00,,,0.01,,2013-10-11 19:21:00,
2013-10-11 13:42:00,46.0,30.0,30.16,NW,315,1.0,4.0,53,0.00,,,0.01,,2013-10-11 19:42:00,
2013-10-11 13:52:00,46.0,29.0,30.16,NW,315,3.0,6.0,52,0.00,,,0.01,,2013-10-11 19:52:00,
2013-10-11 14:12:00,49.0,32.0,30.15,South,180,1.0,8.0,51,0.00,,,0.01,,2013-10-11 20:12:00,
2013-10-11 14:22:00,50.0,30.0,30.15,North,0,2.0,9.0,46,0.00,,,0.01,,2013-10-11 20:22:00,
2013-10-11 14:42:00,49.0,29.0,30.15,NW,315,5.0,9.0,45,0.00,,,0.01,,2013-10-11 20:42:00,
2013-10-11 14:53:00,47.0,27.0,30.16,North,0,3.0,7.0,46,0.00,,,0.01,,2013-10-11 20:53:00,
2013-10-11 15:12:00,48.0,30.0,30.16,NW,315,2.0,5.0,50,0.00,,,0.01,,2013-10-11 21:12:00,
2013-10-11 15:22:00,48.0,30.0,30.16,North,0,1.0,4.0,49,0.00,,,0.01,,2013-10-11 21:22:00,
2013-10-11 15:43:00,48.0,30.0,30.16,West,270,2.0,7.0,49,0.00,,,0.01,,2013-10-11 21:43:00,
2013-10-11 15:55:00,48.0,30.0,30.16,West,270,3.0,8.0,49,0.00,,,0.01,,2013-10-11 21:55:00,
2013-10-11 16:13:00,49.0,31.0,30.16,South,180,1.0,4.0,49,0.00,,,0.01,,2013-10-11 22:13:00,
2013-10-11 16:23:00,49.0,30.0,30.16,East,90,2.0,8.0,47,0.00,,,0.01,,2013-10-11 22:23:00,
2013-10-11 16:43:00,49.0,31.0,30.16,SW,225,1.0,4.0,50,0.00,,,0.01,,2013-10-11 22:43:00,
2013-10-11 16:54:00,49.0,30.0,30.16,West,270,2.0,6.0,48,0.00,,,0.01,,2013-10-11 22:54:00,
2013-10-11 17:12:00,49.0,30.0,30.16,West,270,0.0,2.0,47,0.00,,,0.01,,2013-10-11 23:12:00,
2013-10-11 17:22:00,48.0,29.0,30.16,NW,315,1.0,2.0,48,0.00,,,0.01,,2013-10-11 23:22:00,
2013-10-11 17:42:00,47.0,29.0,30.16,North,0,0.0,3.0,50,0.00,,,0.01,,2013-10-11 23:42:00,
2013-10-11 17:53:00,46.0,28.0,30.16,South,180,0.0,4.0,49,0.00,,,0.01,,2013-10-11 23:53:00,
2013-10-11 18:12:00,47.0,29.0,30.15,West,270,1.0,4.0,50,0.00,,,0.01,,2013-10-12 00:12:00,
2013-10-11 18:22:00,47.0,28.0,30.16,NW,315,2.0,4.0,48,0.00,,,0.01,,2013-10-12 00:22:00,
2013-10-11 18:42:00,47.0,28.0,30.16,NW,315,2.0,5.0,48,0.00,,,0.01,,2013-10-12 00:42:00,
2013-10-11 18:53:00,46.0,28.0,30.16,SW,225,1.0,2.0,50,0.00,,,0.01,,2013-10-12 00:53:00,
2013-10-11 19:11:00,44.0,28.0,30.16,South,180,1.0,2.0,52,0.00,,,0.01,,2013-10-12 01:11:00,
2013-10-11 19:22:00,43.0,28.0,30.16,South,180,1.0,2.0,55,0.00,,,0.01,,2013-10-12 01:22:00,
2013-10-11 19:42:00,42.0,28.0,30.15,South,180,2.0,3.0,57,0.00,,,0.01,,2013-10-12 01:42:00,
2013-10-11 19:52:00,41.0,28.0,30.16,South,180,2.0,2.0,60,0.00,,,0.01,,2013-10-12 01:52:00,
2013-10-11 20:12:00,39.0,27.0,30.16,South,180,0.0,2.0,62,0.00,,,0.01,,2013-10-12 02:12:00,
2013-10-11 20:23:00,37.0,26.0,30.16,South,180,0.0,1.0,64,0.00,,,0.01,,2013-10-12 02:23:00,
2013-10-11 20:42:00,36.0,26.0,30.16,SE,135,0.0,2.0,66,0.00,,,0.01,,2013-10-12 02:42:00,
2013-10-11 20:52:00,35.0,25.0,30.16,South,180,0.0,2.0,67,0.00,,,0.01,,2013-10-12 02:52:00,
2013-10-11 21:12:00,35.0,26.0,30.16,SE,135,1.0,2.0,68,0.00,,,0.01,,2013-10-12 03:12:00,
2013-10-11 21:23:00,34.0,25.0,30.16,South,180,1.0,2.0,69,0.00,,,0.01,,2013-10-12 03:23:00,
2013-10-11 21:44:00,33.0,25.0,30.16,South,180,2.0,3.0,71,0.00,,,0.01,,2013-10-12 03:44:00,
2013-10-11 21:54:00,33.0,25.0,30.16,South,180,1.0,2.0,72,0.00,,,0.01,,2013-10-12 03:54:00,
2013-10-11 22:14:00,33.0,25.0,30.17,SE,135,0.0,2.0,73,0.00,,,0.01,,2013-10-12 04:14:00,
2013-10-11 22:24:00,33.0,26.0,30.16,SE,135,1.0,4.0,74,0.00,,,0.01,,2013-10-12 04:24:00,
2013-10-11 22:44:00,33.0,26.0,30.17,South,180,0.0,2.0,75,0.00,,,0.01,,2013-10-12 04:44:00,
2013-10-11 22:54:00,33.0,26.0,30.17,SE,135,1.0,2.0,75,0.00,,,0.01,,2013-10-12 04:54:00,
2013-10-11 23:13:00,33.0,26.0,30.17,SW,225,0.0,4.0,75,0.00,,,0.01,,2013-10-12 05:13:00,
2013-10-11 23:23:00,32.0,25.0,30.16,SE,135,1.0,2.0,75,0.00,,,0.01,,2013-10-12 05:23:00,
2013-10-11 23:43:00,32.0,25.0,30.16,West,270,0.0,2.0,76,0.00,,,0.01,,2013-10-12 05:43:00,
2013-10-11 23:52:00,31.0,24.0,30.16,SE,135,0.0,0.0,76,0.00,,,0.01,,2013-10-12 05:52:00,